sensor_id;sensor_type;location;lat;lon;timestamp;P1;durP1;ratioP1;P2;durP2;ratioP2
8331;SDS011;4203;48.144;14.118;2022-09-03T00:01:26;6.25;;;3.00;;
8331;SDS011;4203;48.144;14.118;2022-09-03T00:03:58;3.80;;;3.50;;
8331;SDS011;4203;48.144;14.118;2022-09-03T00:06:32;3.55;;;3.40;;
8331;SDS011;4203;48.144;14.118;2022-09-03T00:09:04;3.22;;;3.05;;
8331;SDS011;4203;48.144;14.118;2022-09-03T00:11:38;3.80;;;3.33;;
8331;SDS011;4203;48.144;14.118;2022-09-03T00:14:15;3.30;;;3.10;;
8331;SDS011;4203;48.144;14.118;2022-09-03T00:16:47;3.95;;;3.65;;
8331;SDS011;4203;48.144;14.118;2022-09-03T00:19:19;3.40;;;3.17;;
8331;SDS011;4203;48.144;14.118;2022-09-03T00:21:53;3.10;;;3.00;;
8331;SDS011;4203;48.144;14.118;2022-09-03T00:24:24;3.90;;;3.60;;
8331;SDS011;4203;48.144;14.118;2022-09-03T00:26:58;3.95;;;3.60;;
8331;SDS011;4203;48.144;14.118;2022-09-03T00:29:31;3.08;;;2.90;;
8331;SDS011;4203;48.144;14.118;2022-09-03T00:32:03;3.78;;;3.47;;
8331;SDS011;4203;48.144;14.118;2022-09-03T00:34:35;3.25;;;3.03;;
8331;SDS011;4203;48.144;14.118;2022-09-03T00:37:07;3.35;;;3.15;;
8331;SDS011;4203;48.144;14.118;2022-09-03T00:39:36;3.38;;;3.10;;
8331;SDS011;4203;48.144;14.118;2022-09-03T00:42:08;4.72;;;3.60;;
8331;SDS011;4203;48.144;14.118;2022-09-03T00:47:53;3.15;;;2.95;;
8331;SDS011;4203;48.144;14.118;2022-09-03T00:50:30;5.43;;;3.35;;
8331;SDS011;4203;48.144;14.118;2022-09-03T00:53:09;3.17;;;2.97;;
8331;SDS011;4203;48.144;14.118;2022-09-03T00:55:45;3.25;;;3.13;;
8331;SDS011;4203;48.144;14.118;2022-09-03T00:58:35;4.43;;;3.20;;
8331;SDS011;4203;48.144;14.118;2022-09-03T01:01:17;3.15;;;2.95;;
8331;SDS011;4203;48.144;14.118;2022-09-03T01:03:50;2.90;;;2.70;;
8331;SDS011;4203;48.144;14.118;2022-09-03T01:06:27;2.92;;;2.78;;
8331;SDS011;4203;48.144;14.118;2022-09-03T01:09:07;2.63;;;2.53;;
8331;SDS011;4203;48.144;14.118;2022-09-03T01:11:46;6.80;;;3.55;;
8331;SDS011;4203;48.144;14.118;2022-09-03T01:14:26;2.70;;;2.60;;
8331;SDS011;4203;48.144;14.118;2022-09-03T01:17:06;5.00;;;3.38;;
8331;SDS011;4203;48.144;14.118;2022-09-03T01:19:59;3.22;;;3.03;;
8331;SDS011;4203;48.144;14.118;2022-09-03T01:22:49;3.40;;;3.00;;
8331;SDS011;4203;48.144;14.118;2022-09-03T01:25:52;2.85;;;2.72;;
8331;SDS011;4203;48.144;14.118;2022-09-03T01:28:40;2.67;;;2.58;;
8331;SDS011;4203;48.144;14.118;2022-09-03T01:31:23;2.75;;;2.53;;
8331;SDS011;4203;48.144;14.118;2022-09-03T01:34:00;2.78;;;2.67;;
8331;SDS011;4203;48.144;14.118;2022-09-03T01:36:36;2.65;;;2.45;;
8331;SDS011;4203;48.144;14.118;2022-09-03T01:39:14;3.92;;;2.80;;
8331;SDS011;4203;48.144;14.118;2022-09-03T01:41:48;5.40;;;2.53;;
8331;SDS011;4203;48.144;14.118;2022-09-03T01:47:50;3.00;;;2.83;;
8331;SDS011;4203;48.144;14.118;2022-09-03T01:50:29;2.50;;;2.30;;
8331;SDS011;4203;48.144;14.118;2022-09-03T01:53:06;2.70;;;2.30;;
8331;SDS011;4203;48.144;14.118;2022-09-03T01:55:48;2.40;;;2.20;;
8331;SDS011;4203;48.144;14.118;2022-09-03T01:58:26;2.42;;;2.33;;
8331;SDS011;4203;48.144;14.118;2022-09-03T02:01:00;3.83;;;2.50;;
8331;SDS011;4203;48.144;14.118;2022-09-03T02:03:34;2.55;;;2.35;;
8331;SDS011;4203;48.144;14.118;2022-09-03T02:06:07;6.30;;;2.70;;
8331;SDS011;4203;48.144;14.118;2022-09-03T02:08:34;2.67;;;2.47;;
8331;SDS011;4203;48.144;14.118;2022-09-03T02:11:03;3.08;;;2.88;;
8331;SDS011;4203;48.144;14.118;2022-09-03T02:13:34;2.70;;;2.60;;
8331;SDS011;4203;48.144;14.118;2022-09-03T02:16:08;4.07;;;3.70;;
8331;SDS011;4203;48.144;14.118;2022-09-03T02:18:40;3.30;;;2.67;;
8331;SDS011;4203;48.144;14.118;2022-09-03T02:21:11;2.95;;;2.75;;
8331;SDS011;4203;48.144;14.118;2022-09-03T02:23:41;2.58;;;2.47;;
8331;SDS011;4203;48.144;14.118;2022-09-03T02:26:09;2.88;;;2.67;;
8331;SDS011;4203;48.144;14.118;2022-09-03T02:28:38;5.57;;;2.78;;
8331;SDS011;4203;48.144;14.118;2022-09-03T02:31:05;2.78;;;2.60;;
8331;SDS011;4203;48.144;14.118;2022-09-03T02:33:35;2.78;;;2.67;;
8331;SDS011;4203;48.144;14.118;2022-09-03T02:36:07;2.90;;;2.70;;
8331;SDS011;4203;48.144;14.118;2022-09-03T02:38:37;2.63;;;2.53;;
8331;SDS011;4203;48.144;14.118;2022-09-03T02:41:06;2.70;;;2.60;;
8331;SDS011;4203;48.144;14.118;2022-09-03T02:43:36;3.03;;;2.85;;
8331;SDS011;4203;48.144;14.118;2022-09-03T02:46:08;2.80;;;2.60;;
8331;SDS011;4203;48.144;14.118;2022-09-03T02:48:39;3.03;;;2.85;;
8331;SDS011;4203;48.144;14.118;2022-09-03T02:51:08;3.30;;;3.08;;
8331;SDS011;4203;48.144;14.118;2022-09-03T02:53:35;2.78;;;2.58;;
8331;SDS011;4203;48.144;14.118;2022-09-03T02:56:03;2.75;;;2.65;;
8331;SDS011;4203;48.144;14.118;2022-09-03T02:58:30;3.00;;;2.80;;
8331;SDS011;4203;48.144;14.118;2022-09-03T03:00:58;3.50;;;3.20;;
8331;SDS011;4203;48.144;14.118;2022-09-03T03:03:25;3.00;;;2.90;;
8331;SDS011;4203;48.144;14.118;2022-09-03T03:05:52;3.55;;;3.35;;
8331;SDS011;4203;48.144;14.118;2022-09-03T03:08:23;5.70;;;3.13;;
8331;SDS011;4203;48.144;14.118;2022-09-03T03:10:53;2.88;;;2.78;;
8331;SDS011;4203;48.144;14.118;2022-09-03T03:13:23;3.35;;;3.10;;
8331;SDS011;4203;48.144;14.118;2022-09-03T03:15:51;3.25;;;3.03;;
8331;SDS011;4203;48.144;14.118;2022-09-03T03:18:21;2.95;;;2.78;;
8331;SDS011;4203;48.144;14.118;2022-09-03T03:20:48;3.58;;;3.28;;
8331;SDS011;4203;48.144;14.118;2022-09-03T03:23:16;3.78;;;3.47;;
8331;SDS011;4203;48.144;14.118;2022-09-03T03:25:45;3.15;;;3.00;;
8331;SDS011;4203;48.144;14.118;2022-09-03T03:28:12;5.20;;;3.60;;
8331;SDS011;4203;48.144;14.118;2022-09-03T03:30:39;3.70;;;3.50;;
8331;SDS011;4203;48.144;14.118;2022-09-03T03:33:07;3.92;;;3.53;;
8331;SDS011;4203;48.144;14.118;2022-09-03T03:35:34;3.38;;;3.17;;
8331;SDS011;4203;48.144;14.118;2022-09-03T03:38:02;3.50;;;3.30;;
8331;SDS011;4203;48.144;14.118;2022-09-03T03:40:29;3.22;;;3.05;;
8331;SDS011;4203;48.144;14.118;2022-09-03T03:42:58;4.55;;;3.22;;
8331;SDS011;4203;48.144;14.118;2022-09-03T03:45:25;3.25;;;3.05;;
8331;SDS011;4203;48.144;14.118;2022-09-03T03:47:55;3.40;;;3.20;;
8331;SDS011;4203;48.144;14.118;2022-09-03T03:50:24;3.85;;;3.55;;
8331;SDS011;4203;48.144;14.118;2022-09-03T03:52:52;3.35;;;3.15;;
8331;SDS011;4203;48.144;14.118;2022-09-03T03:55:19;3.70;;;3.40;;
8331;SDS011;4203;48.144;14.118;2022-09-03T03:57:46;4.10;;;3.85;;
8331;SDS011;4203;48.144;14.118;2022-09-03T04:00:16;3.08;;;2.90;;
8331;SDS011;4203;48.144;14.118;2022-09-03T04:02:43;3.92;;;3.10;;
8331;SDS011;4203;48.144;14.118;2022-09-03T04:05:11;3.25;;;3.05;;
8331;SDS011;4203;48.144;14.118;2022-09-03T04:07:38;3.90;;;3.60;;
8331;SDS011;4203;48.144;14.118;2022-09-03T04:10:06;3.47;;;3.28;;
8331;SDS011;4203;48.144;14.118;2022-09-03T04:12:34;3.92;;;3.50;;
8331;SDS011;4203;48.144;14.118;2022-09-03T04:15:01;3.73;;;3.43;;
8331;SDS011;4203;48.144;14.118;2022-09-03T04:17:30;3.50;;;3.30;;
8331;SDS011;4203;48.144;14.118;2022-09-03T04:19:57;3.50;;;3.20;;
8331;SDS011;4203;48.144;14.118;2022-09-03T04:22:26;3.58;;;3.38;;
8331;SDS011;4203;48.144;14.118;2022-09-03T04:24:54;3.67;;;3.47;;
8331;SDS011;4203;48.144;14.118;2022-09-03T04:27:21;3.25;;;2.78;;
8331;SDS011;4203;48.144;14.118;2022-09-03T04:29:48;6.10;;;3.70;;
8331;SDS011;4203;48.144;14.118;2022-09-03T04:32:16;4.00;;;3.58;;
8331;SDS011;4203;48.144;14.118;2022-09-03T04:35:02;3.45;;;3.25;;
8331;SDS011;4203;48.144;14.118;2022-09-03T04:37:29;4.97;;;4.68;;
8331;SDS011;4203;48.144;14.118;2022-09-03T04:39:58;5.63;;;4.95;;
8331;SDS011;4203;48.144;14.118;2022-09-03T04:42:26;5.85;;;5.40;;
8331;SDS011;4203;48.144;14.118;2022-09-03T04:44:53;6.13;;;5.38;;
8331;SDS011;4203;48.144;14.118;2022-09-03T04:47:20;6.80;;;5.13;;
8331;SDS011;4203;48.144;14.118;2022-09-03T04:49:47;5.93;;;5.20;;
8331;SDS011;4203;48.144;14.118;2022-09-03T04:52:16;4.97;;;4.50;;
8331;SDS011;4203;48.144;14.118;2022-09-03T04:54:43;11.70;;;5.80;;
8331;SDS011;4203;48.144;14.118;2022-09-03T04:57:10;5.03;;;4.55;;
8331;SDS011;4203;48.144;14.118;2022-09-03T04:59:38;4.57;;;4.28;;
8331;SDS011;4203;48.144;14.118;2022-09-03T05:02:06;5.25;;;4.90;;
8331;SDS011;4203;48.144;14.118;2022-09-03T05:04:34;6.45;;;5.10;;
8331;SDS011;4203;48.144;14.118;2022-09-03T05:07:01;5.82;;;4.80;;
8331;SDS011;4203;48.144;14.118;2022-09-03T05:09:30;4.47;;;4.18;;
8331;SDS011;4203;48.144;14.118;2022-09-03T05:11:57;5.13;;;4.63;;
8331;SDS011;4203;48.144;14.118;2022-09-03T05:14:24;5.88;;;5.38;;
8331;SDS011;4203;48.144;14.118;2022-09-03T05:16:51;5.15;;;4.68;;
8331;SDS011;4203;48.144;14.118;2022-09-03T05:19:18;4.60;;;4.20;;
8331;SDS011;4203;48.144;14.118;2022-09-03T05:21:46;4.85;;;4.32;;
8331;SDS011;4203;48.144;14.118;2022-09-03T05:24:13;4.50;;;4.10;;
8331;SDS011;4203;48.144;14.118;2022-09-03T05:26:41;4.15;;;3.75;;
8331;SDS011;4203;48.144;14.118;2022-09-03T05:29:09;3.92;;;3.63;;
8331;SDS011;4203;48.144;14.118;2022-09-03T05:31:36;3.80;;;3.45;;
8331;SDS011;4203;48.144;14.118;2022-09-03T05:34:04;3.80;;;3.17;;
8331;SDS011;4203;48.144;14.118;2022-09-03T05:36:33;3.17;;;2.88;;
8331;SDS011;4203;48.144;14.118;2022-09-03T05:39:02;3.72;;;3.40;;
8331;SDS011;4203;48.144;14.118;2022-09-03T05:41:30;2.78;;;2.58;;
8331;SDS011;4203;48.144;14.118;2022-09-03T05:43:59;3.30;;;3.10;;
8331;SDS011;4203;48.144;14.118;2022-09-03T05:46:28;3.53;;;3.22;;
8331;SDS011;4203;48.144;14.118;2022-09-03T05:48:57;3.70;;;2.92;;
8331;SDS011;4203;48.144;14.118;2022-09-03T05:51:25;2.97;;;2.70;;
8331;SDS011;4203;48.144;14.118;2022-09-03T05:53:52;3.33;;;2.90;;
8331;SDS011;4203;48.144;14.118;2022-09-03T05:56:20;3.40;;;3.10;;
8331;SDS011;4203;48.144;14.118;2022-09-03T05:58:49;3.70;;;2.88;;
8331;SDS011;4203;48.144;14.118;2022-09-03T06:01:20;3.03;;;2.63;;
8331;SDS011;4203;48.144;14.118;2022-09-03T06:03:52;2.55;;;2.38;;
8331;SDS011;4203;48.144;14.118;2022-09-03T06:06:21;3.13;;;2.83;;
8331;SDS011;4203;48.144;14.118;2022-09-03T06:08:50;3.42;;;2.47;;
8331;SDS011;4203;48.144;14.118;2022-09-03T06:11:17;2.85;;;2.40;;
8331;SDS011;4203;48.144;14.118;2022-09-03T06:13:45;3.08;;;2.83;;
8331;SDS011;4203;48.144;14.118;2022-09-03T06:16:13;2.60;;;2.40;;
8331;SDS011;4203;48.144;14.118;2022-09-03T06:18:42;2.65;;;2.55;;
8331;SDS011;4203;48.144;14.118;2022-09-03T06:21:09;7.38;;;2.45;;
8331;SDS011;4203;48.144;14.118;2022-09-03T06:23:36;3.10;;;2.08;;
8331;SDS011;4203;48.144;14.118;2022-09-03T06:26:04;2.45;;;2.35;;
8331;SDS011;4203;48.144;14.118;2022-09-03T06:28:33;5.32;;;2.70;;
8331;SDS011;4203;48.144;14.118;2022-09-03T06:31:02;2.55;;;2.35;;
8331;SDS011;4203;48.144;14.118;2022-09-03T06:33:31;2.90;;;2.63;;
8331;SDS011;4203;48.144;14.118;2022-09-03T06:36:02;2.58;;;2.47;;
8331;SDS011;4203;48.144;14.118;2022-09-03T06:38:31;2.25;;;2.15;;
8331;SDS011;4203;48.144;14.118;2022-09-03T06:41:00;3.75;;;3.03;;
8331;SDS011;4203;48.144;14.118;2022-09-03T06:43:30;2.72;;;2.33;;
8331;SDS011;4203;48.144;14.118;2022-09-03T06:45:59;2.70;;;2.50;;
8331;SDS011;4203;48.144;14.118;2022-09-03T06:48:29;2.83;;;2.60;;
8331;SDS011;4203;48.144;14.118;2022-09-03T06:50:58;2.40;;;2.30;;
8331;SDS011;4203;48.144;14.118;2022-09-03T06:53:28;3.15;;;2.60;;
8331;SDS011;4203;48.144;14.118;2022-09-03T06:55:57;3.10;;;2.70;;
8331;SDS011;4203;48.144;14.118;2022-09-03T06:58:27;2.20;;;2.10;;
8331;SDS011;4203;48.144;14.118;2022-09-03T07:00:59;2.63;;;2.50;;
8331;SDS011;4203;48.144;14.118;2022-09-03T07:03:28;2.60;;;2.40;;
8331;SDS011;4203;48.144;14.118;2022-09-03T07:05:59;2.28;;;2.17;;
8331;SDS011;4203;48.144;14.118;2022-09-03T07:08:28;2.80;;;2.60;;
8331;SDS011;4203;48.144;14.118;2022-09-03T07:10:57;2.70;;;2.45;;
8331;SDS011;4203;48.144;14.118;2022-09-03T07:13:24;2.78;;;2.60;;
8331;SDS011;4203;48.144;14.118;2022-09-03T07:15:57;2.75;;;2.33;;
8331;SDS011;4203;48.144;14.118;2022-09-03T07:18:25;3.08;;;2.40;;
8331;SDS011;4203;48.144;14.118;2022-09-03T07:20:57;3.47;;;2.70;;
8331;SDS011;4203;48.144;14.118;2022-09-03T07:23:25;4.20;;;3.10;;
8331;SDS011;4203;48.144;14.118;2022-09-03T07:25:59;2.88;;;2.60;;
8331;SDS011;4203;48.144;14.118;2022-09-03T07:28:29;3.20;;;2.50;;
8331;SDS011;4203;48.144;14.118;2022-09-03T07:31:00;4.65;;;3.17;;
8331;SDS011;4203;48.144;14.118;2022-09-03T07:33:29;3.05;;;2.40;;
8331;SDS011;4203;48.144;14.118;2022-09-03T07:36:01;2.55;;;2.35;;
8331;SDS011;4203;48.144;14.118;2022-09-03T07:38:31;2.50;;;2.40;;
8331;SDS011;4203;48.144;14.118;2022-09-03T07:40:59;6.65;;;2.85;;
8331;SDS011;4203;48.144;14.118;2022-09-03T07:43:27;6.20;;;2.80;;
8331;SDS011;4203;48.144;14.118;2022-09-03T07:45:56;2.20;;;2.10;;
8331;SDS011;4203;48.144;14.118;2022-09-03T07:48:23;4.47;;;2.47;;
8331;SDS011;4203;48.144;14.118;2022-09-03T07:50:50;2.97;;;2.35;;
8331;SDS011;4203;48.144;14.118;2022-09-03T07:53:18;2.40;;;2.30;;
8331;SDS011;4203;48.144;14.118;2022-09-03T07:55:47;2.70;;;2.50;;
8331;SDS011;4203;48.144;14.118;2022-09-03T07:58:14;2.33;;;2.13;;
8331;SDS011;4203;48.144;14.118;2022-09-03T08:00:42;2.75;;;2.65;;
8331;SDS011;4203;48.144;14.118;2022-09-03T08:03:09;9.50;;;2.42;;
8331;SDS011;4203;48.144;14.118;2022-09-03T08:05:37;2.75;;;2.42;;
8331;SDS011;4203;48.144;14.118;2022-09-03T08:08:04;2.25;;;2.15;;
8331;SDS011;4203;48.144;14.118;2022-09-03T08:10:33;2.22;;;2.08;;
8331;SDS011;4203;48.144;14.118;2022-09-03T08:13:04;3.22;;;2.20;;
8331;SDS011;4203;48.144;14.118;2022-09-03T08:15:31;2.47;;;2.28;;
8331;SDS011;4203;48.144;14.118;2022-09-03T08:17:59;2.20;;;2.10;;
8331;SDS011;4203;48.144;14.118;2022-09-03T08:20:26;2.33;;;2.13;;
8331;SDS011;4203;48.144;14.118;2022-09-03T08:22:59;2.65;;;2.45;;
8331;SDS011;4203;48.144;14.118;2022-09-03T08:25:26;2.55;;;2.20;;
8331;SDS011;4203;48.144;14.118;2022-09-03T08:27:56;3.03;;;2.30;;
8331;SDS011;4203;48.144;14.118;2022-09-03T08:30:26;2.55;;;2.30;;
8331;SDS011;4203;48.144;14.118;2022-09-03T08:32:53;2.83;;;2.63;;
8331;SDS011;4203;48.144;14.118;2022-09-03T08:35:21;2.50;;;2.40;;
8331;SDS011;4203;48.144;14.118;2022-09-03T08:37:48;2.65;;;2.45;;
8331;SDS011;4203;48.144;14.118;2022-09-03T08:40:18;2.58;;;2.17;;
8331;SDS011;4203;48.144;14.118;2022-09-03T08:42:51;2.35;;;2.15;;
8331;SDS011;4203;48.144;14.118;2022-09-03T08:45:31;3.78;;;1.90;;
8331;SDS011;4203;48.144;14.118;2022-09-03T08:48:03;2.78;;;2.20;;
8331;SDS011;4203;48.144;14.118;2022-09-03T08:50:35;2.60;;;2.50;;
8331;SDS011;4203;48.144;14.118;2022-09-03T08:53:08;2.22;;;2.03;;
8331;SDS011;4203;48.144;14.118;2022-09-03T08:55:41;4.18;;;2.65;;
8331;SDS011;4203;48.144;14.118;2022-09-03T08:58:17;2.40;;;2.20;;
8331;SDS011;4203;48.144;14.118;2022-09-03T09:00:48;4.15;;;2.20;;
8331;SDS011;4203;48.144;14.118;2022-09-03T09:03:26;2.30;;;2.10;;
8331;SDS011;4203;48.144;14.118;2022-09-03T09:06:15;2.30;;;2.10;;
8331;SDS011;4203;48.144;14.118;2022-09-03T09:08:53;2.17;;;2.08;;
8331;SDS011;4203;48.144;14.118;2022-09-03T09:11:31;2.10;;;2.00;;
8331;SDS011;4203;48.144;14.118;2022-09-03T09:14:10;2.25;;;2.15;;
8331;SDS011;4203;48.144;14.118;2022-09-03T09:16:46;3.22;;;2.30;;
8331;SDS011;4203;48.144;14.118;2022-09-03T09:19:22;2.17;;;2.08;;
8331;SDS011;4203;48.144;14.118;2022-09-03T09:22:02;2.90;;;1.90;;
8331;SDS011;4203;48.144;14.118;2022-09-03T09:24:36;2.03;;;1.92;;
8331;SDS011;4203;48.144;14.118;2022-09-03T09:27:06;1.95;;;1.85;;
8331;SDS011;4203;48.144;14.118;2022-09-03T09:29:35;2.38;;;1.83;;
8331;SDS011;4203;48.144;14.118;2022-09-03T09:32:06;1.90;;;1.85;;
8331;SDS011;4203;48.144;14.118;2022-09-03T09:34:37;2.00;;;1.90;;
8331;SDS011;4203;48.144;14.118;2022-09-03T09:37:07;2.22;;;2.13;;
8331;SDS011;4203;48.144;14.118;2022-09-03T09:39:37;3.20;;;2.20;;
8331;SDS011;4203;48.144;14.118;2022-09-03T09:42:05;2.17;;;1.88;;
8331;SDS011;4203;48.144;14.118;2022-09-03T09:44:35;2.10;;;2.00;;
8331;SDS011;4203;48.144;14.118;2022-09-03T09:47:05;1.88;;;1.77;;
8331;SDS011;4203;48.144;14.118;2022-09-03T09:49:37;2.85;;;2.05;;
8331;SDS011;4203;48.144;14.118;2022-09-03T09:52:17;2.35;;;1.95;;
8331;SDS011;4203;48.144;14.118;2022-09-03T09:54:46;3.65;;;2.20;;
8331;SDS011;4203;48.144;14.118;2022-09-03T09:57:14;3.28;;;2.67;;
8331;SDS011;4203;48.144;14.118;2022-09-03T09:59:43;3.50;;;1.75;;
8331;SDS011;4203;48.144;14.118;2022-09-03T10:02:16;2.83;;;2.55;;
8331;SDS011;4203;48.144;14.118;2022-09-03T10:04:51;1.90;;;1.80;;
8331;SDS011;4203;48.144;14.118;2022-09-03T10:07:23;2.92;;;2.30;;
8331;SDS011;4203;48.144;14.118;2022-09-03T10:10:02;2.65;;;2.45;;
8331;SDS011;4203;48.144;14.118;2022-09-03T10:12:32;2.42;;;2.25;;
8331;SDS011;4203;48.144;14.118;2022-09-03T10:15:17;2.40;;;2.05;;
8331;SDS011;4203;48.144;14.118;2022-09-03T10:17:54;1.88;;;1.77;;
8331;SDS011;4203;48.144;14.118;2022-09-03T10:20:27;3.72;;;2.28;;
8331;SDS011;4203;48.144;14.118;2022-09-03T10:23:05;2.47;;;1.92;;
8331;SDS011;4203;48.144;14.118;2022-09-03T10:25:37;2.00;;;1.90;;
8331;SDS011;4203;48.144;14.118;2022-09-03T10:28:14;2.15;;;2.05;;
8331;SDS011;4203;48.144;14.118;2022-09-03T10:30:52;2.10;;;2.00;;
8331;SDS011;4203;48.144;14.118;2022-09-03T10:33:30;3.38;;;2.03;;
8331;SDS011;4203;48.144;14.118;2022-09-03T10:36:04;2.10;;;2.00;;
8331;SDS011;4203;48.144;14.118;2022-09-03T10:38:39;3.38;;;1.77;;
8331;SDS011;4203;48.144;14.118;2022-09-03T10:41:12;3.63;;;2.13;;
8331;SDS011;4203;48.144;14.118;2022-09-03T10:43:57;8.88;;;2.20;;
8331;SDS011;4203;48.144;14.118;2022-09-03T10:46:44;2.30;;;2.20;;
8331;SDS011;4203;48.144;14.118;2022-09-03T10:49:26;2.33;;;2.20;;
8331;SDS011;4203;48.144;14.118;2022-09-03T10:52:12;3.58;;;2.00;;
8331;SDS011;4203;48.144;14.118;2022-09-03T10:54:49;2.22;;;2.10;;
8331;SDS011;4203;48.144;14.118;2022-09-03T10:57:26;2.33;;;2.13;;
8331;SDS011;4203;48.144;14.118;2022-09-03T11:00:03;2.40;;;2.10;;
8331;SDS011;4203;48.144;14.118;2022-09-03T11:02:58;1.98;;;1.88;;
8331;SDS011;4203;48.144;14.118;2022-09-03T11:05:51;2.10;;;1.90;;
8331;SDS011;4203;48.144;14.118;2022-09-03T11:08:25;2.35;;;1.90;;
8331;SDS011;4203;48.144;14.118;2022-09-03T11:11:06;2.22;;;2.10;;
8331;SDS011;4203;48.144;14.118;2022-09-03T11:13:40;1.90;;;1.80;;
8331;SDS011;4203;48.144;14.118;2022-09-03T11:16:14;3.72;;;2.80;;
8331;SDS011;4203;48.144;14.118;2022-09-03T11:18:46;2.30;;;2.10;;
8331;SDS011;4203;48.144;14.118;2022-09-03T11:21:19;5.75;;;2.50;;
8331;SDS011;4203;48.144;14.118;2022-09-03T11:23:52;2.15;;;2.05;;
8331;SDS011;4203;48.144;14.118;2022-09-03T11:26:28;3.50;;;2.10;;
8331;SDS011;4203;48.144;14.118;2022-09-03T11:28:57;3.17;;;2.40;;
8331;SDS011;4203;48.144;14.118;2022-09-03T11:31:32;1.90;;;1.80;;
8331;SDS011;4203;48.144;14.118;2022-09-03T11:34:13;7.10;;;3.30;;
8331;SDS011;4203;48.144;14.118;2022-09-03T11:37:02;2.40;;;1.90;;
8331;SDS011;4203;48.144;14.118;2022-09-03T11:39:33;4.25;;;2.08;;
8331;SDS011;4203;48.144;14.118;2022-09-03T11:42:02;2.20;;;2.10;;
8331;SDS011;4203;48.144;14.118;2022-09-03T11:44:35;2.90;;;2.30;;
8331;SDS011;4203;48.144;14.118;2022-09-03T11:47:12;1.95;;;1.85;;
8331;SDS011;4203;48.144;14.118;2022-09-03T11:49:43;3.60;;;2.63;;
8331;SDS011;4203;48.144;14.118;2022-09-03T11:52:25;2.50;;;2.10;;
8331;SDS011;4203;48.144;14.118;2022-09-03T11:54:53;3.90;;;2.42;;
8331;SDS011;4203;48.144;14.118;2022-09-03T11:57:22;2.28;;;1.90;;
8331;SDS011;4203;48.144;14.118;2022-09-03T11:59:54;2.03;;;1.92;;
8331;SDS011;4203;48.144;14.118;2022-09-03T12:02:33;2.83;;;2.20;;
8331;SDS011;4203;48.144;14.118;2022-09-03T12:05:12;2.03;;;1.92;;
8331;SDS011;4203;48.144;14.118;2022-09-03T12:07:51;2.30;;;2.10;;
8331;SDS011;4203;48.144;14.118;2022-09-03T12:10:40;2.72;;;2.03;;
8331;SDS011;4203;48.144;14.118;2022-09-03T12:16:21;4.05;;;1.80;;
8331;SDS011;4203;48.144;14.118;2022-09-03T12:19:02;2.10;;;1.98;;
8331;SDS011;4203;48.144;14.118;2022-09-03T12:21:36;2.30;;;1.88;;
8331;SDS011;4203;48.144;14.118;2022-09-03T12:24:05;4.18;;;1.70;;
8331;SDS011;4203;48.144;14.118;2022-09-03T12:26:38;7.10;;;2.10;;
8331;SDS011;4203;48.144;14.118;2022-09-03T12:29:10;3.17;;;2.10;;
8331;SDS011;4203;48.144;14.118;2022-09-03T12:31:47;1.80;;;1.70;;
8331;SDS011;4203;48.144;14.118;2022-09-03T12:34:16;2.25;;;2.10;;
8331;SDS011;4203;48.144;14.118;2022-09-03T12:36:46;4.93;;;2.38;;
8331;SDS011;4203;48.144;14.118;2022-09-03T12:39:17;6.28;;;2.13;;
8331;SDS011;4203;48.144;14.118;2022-09-03T12:44:40;2.63;;;1.80;;
8331;SDS011;4203;48.144;14.118;2022-09-03T12:47:09;2.13;;;1.90;;
8331;SDS011;4203;48.144;14.118;2022-09-03T12:49:38;1.92;;;1.83;;
8331;SDS011;4203;48.144;14.118;2022-09-03T12:52:08;1.90;;;1.80;;
8331;SDS011;4203;48.144;14.118;2022-09-03T12:54:45;2.17;;;1.98;;
8331;SDS011;4203;48.144;14.118;2022-09-03T12:57:20;2.08;;;1.98;;
8331;SDS011;4203;48.144;14.118;2022-09-03T12:59:51;2.20;;;2.10;;
8331;SDS011;4203;48.144;14.118;2022-09-03T13:02:23;1.92;;;1.70;;
8331;SDS011;4203;48.144;14.118;2022-09-03T13:05:05;4.93;;;2.00;;
8331;SDS011;4203;48.144;14.118;2022-09-03T13:07:42;1.70;;;1.60;;
8331;SDS011;4203;48.144;14.118;2022-09-03T13:10:21;1.80;;;1.70;;
8331;SDS011;4203;48.144;14.118;2022-09-03T13:12:56;2.72;;;1.70;;
8331;SDS011;4203;48.144;14.118;2022-09-03T13:15:25;2.03;;;1.92;;
8331;SDS011;4203;48.144;14.118;2022-09-03T13:18:11;2.10;;;2.00;;
8331;SDS011;4203;48.144;14.118;2022-09-03T13:20:50;1.65;;;1.55;;
8331;SDS011;4203;48.144;14.118;2022-09-03T13:23:30;2.30;;;1.90;;
8331;SDS011;4203;48.144;14.118;2022-09-03T13:26:13;1.85;;;1.73;;
8331;SDS011;4203;48.144;14.118;2022-09-03T13:28:54;2.78;;;1.60;;
8331;SDS011;4203;48.144;14.118;2022-09-03T13:31:37;1.75;;;1.65;;
8331;SDS011;4203;48.144;14.118;2022-09-03T13:34:14;2.95;;;1.83;;
8331;SDS011;4203;48.144;14.118;2022-09-03T13:36:48;1.80;;;1.70;;
8331;SDS011;4203;48.144;14.118;2022-09-03T13:39:19;1.67;;;1.67;;
8331;SDS011;4203;48.144;14.118;2022-09-03T13:41:53;2.90;;;1.60;;
8331;SDS011;4203;48.144;14.118;2022-09-03T13:44:33;1.70;;;1.63;;
8331;SDS011;4203;48.144;14.118;2022-09-03T13:47:07;2.17;;;1.60;;
8331;SDS011;4203;48.144;14.118;2022-09-03T13:49:46;3.55;;;1.45;;
8331;SDS011;4203;48.144;14.118;2022-09-03T13:52:37;4.05;;;1.70;;
8331;SDS011;4203;48.144;14.118;2022-09-03T13:55:08;2.05;;;1.90;;
8331;SDS011;4203;48.144;14.118;2022-09-03T13:57:43;1.90;;;1.80;;
8331;SDS011;4203;48.144;14.118;2022-09-03T14:00:21;2.53;;;1.77;;
8331;SDS011;4203;48.144;14.118;2022-09-03T14:02:53;3.03;;;1.70;;
8331;SDS011;4203;48.144;14.118;2022-09-03T14:05:40;1.90;;;1.80;;
8331;SDS011;4203;48.144;14.118;2022-09-03T14:08:19;1.92;;;1.83;;
8331;SDS011;4203;48.144;14.118;2022-09-03T14:10:53;2.95;;;1.90;;
8331;SDS011;4203;48.144;14.118;2022-09-03T14:13:29;3.30;;;1.88;;
8331;SDS011;4203;48.144;14.118;2022-09-03T14:16:07;2.70;;;1.73;;
8331;SDS011;4203;48.144;14.118;2022-09-03T14:18:41;1.75;;;1.60;;
8331;SDS011;4203;48.144;14.118;2022-09-03T14:21:17;1.73;;;1.63;;
8331;SDS011;4203;48.144;14.118;2022-09-03T14:23:50;3.10;;;2.30;;
8331;SDS011;4203;48.144;14.118;2022-09-03T14:26:27;2.10;;;2.00;;
8331;SDS011;4203;48.144;14.118;2022-09-03T14:28:57;1.77;;;1.65;;
8331;SDS011;4203;48.144;14.118;2022-09-03T14:31:30;1.52;;;1.52;;
8331;SDS011;4203;48.144;14.118;2022-09-03T14:34:23;1.70;;;1.63;;
8331;SDS011;4203;48.144;14.118;2022-09-03T14:37:02;1.92;;;1.73;;
8331;SDS011;4203;48.144;14.118;2022-09-03T14:39:42;2.40;;;1.60;;
8331;SDS011;4203;48.144;14.118;2022-09-03T14:42:33;1.40;;;1.40;;
8331;SDS011;4203;48.144;14.118;2022-09-03T14:45:17;1.60;;;1.50;;
8331;SDS011;4203;48.144;14.118;2022-09-03T14:51:08;1.88;;;1.77;;
8331;SDS011;4203;48.144;14.118;2022-09-03T14:53:50;1.80;;;1.73;;
8331;SDS011;4203;48.144;14.118;2022-09-03T14:56:41;1.98;;;1.88;;
8331;SDS011;4203;48.144;14.118;2022-09-03T14:59:28;2.00;;;1.90;;
8331;SDS011;4203;48.144;14.118;2022-09-03T15:02:23;2.00;;;1.90;;
8331;SDS011;4203;48.144;14.118;2022-09-03T15:05:10;1.77;;;1.67;;
8331;SDS011;4203;48.144;14.118;2022-09-03T15:07:41;1.92;;;1.83;;
8331;SDS011;4203;48.144;14.118;2022-09-03T15:10:17;1.70;;;1.60;;
8331;SDS011;4203;48.144;14.118;2022-09-03T15:12:52;1.75;;;1.65;;
8331;SDS011;4203;48.144;14.118;2022-09-03T15:15:25;1.98;;;1.88;;
8331;SDS011;4203;48.144;14.118;2022-09-03T15:18:02;1.80;;;1.70;;
8331;SDS011;4203;48.144;14.118;2022-09-03T15:20:44;2.65;;;1.88;;
8331;SDS011;4203;48.144;14.118;2022-09-03T15:23:37;3.42;;;1.95;;
8331;SDS011;4203;48.144;14.118;2022-09-03T15:26:32;2.22;;;2.00;;
8331;SDS011;4203;48.144;14.118;2022-09-03T15:29:10;1.92;;;1.75;;
8331;SDS011;4203;48.144;14.118;2022-09-03T15:31:54;3.58;;;2.03;;
8331;SDS011;4203;48.144;14.118;2022-09-03T15:34:35;2.17;;;2.03;;
8331;SDS011;4203;48.144;14.118;2022-09-03T15:37:16;3.45;;;2.35;;
8331;SDS011;4203;48.144;14.118;2022-09-03T15:39:46;2.65;;;2.30;;
8331;SDS011;4203;48.144;14.118;2022-09-03T15:42:26;4.25;;;2.42;;
8331;SDS011;4203;48.144;14.118;2022-09-03T15:45:02;3.17;;;2.65;;
8331;SDS011;4203;48.144;14.118;2022-09-03T15:47:38;2.10;;;2.00;;
8331;SDS011;4203;48.144;14.118;2022-09-03T15:50:24;2.45;;;2.22;;
8331;SDS011;4203;48.144;14.118;2022-09-03T15:52:59;2.40;;;2.30;;